createdAt,value
2022-12-18T00:04:28.953Z,102951.25
2022-12-18T00:09:25.651Z,102947.72
2022-12-18T00:14:28.137Z,102935.44
2022-12-18T00:19:24.651Z,102942.41
2022-12-18T00:24:21.125Z,102948.31
2022-12-18T00:29:17.563Z,102955.09
2022-12-18T00:34:14.407Z,102964.66
2022-12-18T00:39:12.108Z,102973.28
2022-12-18T00:44:10.665Z,102959.25
2022-12-18T00:49:07.798Z,102963.63
2022-12-18T00:54:04.057Z,102967.88
2022-12-18T00:59:00.705Z,102965.00
2022-12-18T01:03:57.823Z,102954.50
2022-12-18T01:08:54.148Z,102967.50
2022-12-18T01:13:50.604Z,102969.81
2022-12-18T01:18:47.258Z,102980.41
2022-12-18T01:23:43.742Z,102976.13
2022-12-18T01:28:40.729Z,102977.00
2022-12-18T01:33:39.051Z,102978.63
2022-12-18T01:38:35.827Z,102974.16
2022-12-18T01:43:45.308Z,102980.09
2022-12-18T01:48:42.305Z,102972.03
2022-12-18T01:53:40.725Z,102988.75
2022-12-18T01:58:45.135Z,102993.81
2022-12-18T02:03:43.638Z,102995.47
2022-12-18T02:08:51.389Z,102985.03
2022-12-18T02:14:22.815Z,102994.66
2022-12-18T02:19:48.362Z,102984.16
2022-12-18T02:25:06.099Z,102994.59
2022-12-18T02:30:03.815Z,102997.88
2022-12-18T02:35:00.710Z,103009.28
2022-12-18T02:39:57.983Z,103009.13
2022-12-18T02:44:55.750Z,103018.00
2022-12-18T02:50:08.434Z,103022.44
2022-12-18T02:55:23.157Z,103018.97
2022-12-18T03:00:25.463Z,103029.22
2022-12-18T03:05:44.211Z,103029.00
2022-12-18T03:10:46.810Z,103027.13
2022-12-18T03:15:46.987Z,103030.53
2022-12-18T03:20:44.662Z,103019.84
2022-12-18T03:25:42.969Z,103005.06
2022-12-18T03:30:42.394Z,103035.59
2022-12-18T03:35:41.431Z,103026.81
2022-12-18T03:41:02.247Z,103040.72
2022-12-18T03:46:41.275Z,103032.94
2022-12-18T03:51:39.590Z,103030.31
2022-12-18T03:56:43.154Z,103024.09
2022-12-18T04:01:43.571Z,103017.94
2022-12-18T04:06:41.944Z,103017.75
2022-12-18T04:11:38.398Z,103022.13
2022-12-18T04:16:35.888Z,103015.09
2022-12-18T04:21:32.349Z,103014.94
2022-12-18T04:26:28.713Z,103020.03
2022-12-18T04:31:25.164Z,103026.84
2022-12-18T04:36:22.160Z,103032.06
2022-12-18T04:41:18.846Z,103021.53
2022-12-18T04:46:15.762Z,103011.03
2022-12-18T04:51:12.245Z,103025.13
2022-12-18T04:56:13.729Z,103029.47
2022-12-18T05:01:11.858Z,103029.22
2022-12-18T05:06:08.768Z,103043.13
2022-12-18T05:11:08.164Z,103046.53
2022-12-18T05:16:05.790Z,103054.31
2022-12-18T05:21:02.766Z,103055.81
2022-12-18T05:26:01.977Z,103050.56
2022-12-18T05:31:00.116Z,103062.09
2022-12-18T05:35:58.655Z,103062.03
2022-12-18T05:40:55.115Z,103051.97
2022-12-18T05:45:52.301Z,103080.78
2022-12-18T05:50:49.117Z,103083.31
2022-12-18T05:55:45.658Z,103078.03
2022-12-18T06:00:44.500Z,103078.78
2022-12-18T06:05:43.106Z,103060.44
2022-12-18T06:10:41.978Z,103081.16
2022-12-18T06:15:39.169Z,103089.91
2022-12-18T06:20:37.469Z,103089.00
2022-12-18T06:25:33.968Z,103091.41
2022-12-18T06:30:30.428Z,103090.53
2022-12-18T06:35:26.895Z,103098.19
2022-12-18T06:40:23.307Z,103095.44
2022-12-18T06:45:20.770Z,103104.94
2022-12-18T06:50:17.520Z,103108.34
2022-12-18T06:55:13.996Z,103110.88
2022-12-18T07:00:10.821Z,103102.03
2022-12-18T07:05:10.939Z,103102.97
2022-12-18T07:10:07.846Z,103098.66
2022-12-18T07:15:04.819Z,103113.41
2022-12-18T07:20:02.557Z,103112.63
2022-12-18T07:24:59.918Z,103113.34
2022-12-18T07:29:56.361Z,103126.44
2022-12-18T07:34:52.903Z,103121.06
2022-12-18T07:39:49.385Z,103127.06
2022-12-18T07:44:48.354Z,103133.06
2022-12-18T07:49:45.075Z,103140.00
2022-12-18T07:54:41.588Z,103143.50
2022-12-18T07:59:38.099Z,103151.47
2022-12-18T08:04:37.570Z,103140.09
2022-12-18T08:09:34.081Z,103146.28
2022-12-18T08:14:30.508Z,103145.56
2022-12-18T08:19:27.018Z,103129.97
2022-12-18T08:24:23.747Z,103118.72
2022-12-18T08:29:21.791Z,103126.78
2022-12-18T08:34:18.364Z,103134.81
2022-12-18T08:39:14.890Z,103114.25
2022-12-18T08:44:29.969Z,103129.94
2022-12-18T08:49:29.129Z,103134.31
2022-12-18T08:54:26.093Z,103129.34
2022-12-18T08:59:24.035Z,103127.84
2022-12-18T09:04:20.498Z,103128.88
2022-12-18T09:09:16.946Z,103134.22
2022-12-18T09:14:13.434Z,103130.06
2022-12-18T09:19:10.771Z,103133.69
2022-12-18T09:24:10.757Z,103121.50
2022-12-18T09:29:08.325Z,103137.31
2022-12-18T09:34:09.989Z,103122.47
2022-12-18T09:39:08.858Z,103140.09
2022-12-18T09:44:56.859Z,103126.59
2022-12-18T09:50:04.576Z,103124.16
2022-12-18T09:55:20.446Z,103134.06
2022-12-18T10:00:20.552Z,103137.75
2022-12-18T10:05:20.337Z,103138.88
2022-12-18T10:10:41.356Z,103123.28
2022-12-18T10:15:51.940Z,103123.38
2022-12-18T10:26:33.022Z,103122.16
2022-12-18T10:31:29.565Z,103122.38
2022-12-18T10:43:16.153Z,103134.16
2022-12-18T10:48:21.233Z,103140.47
2022-12-18T10:53:40.897Z,103132.72
2022-12-18T10:58:39.680Z,103125.19
2022-12-18T11:03:43.153Z,103116.75
2022-12-18T11:08:40.667Z,103120.38
2022-12-18T11:13:37.439Z,103114.47
2022-12-18T11:18:35.879Z,103120.72
2022-12-18T11:23:32.501Z,103112.84
2022-12-18T11:29:13.736Z,103106.94
2022-12-18T11:34:29.500Z,103095.00
2022-12-18T11:39:57.417Z,103106.44
2022-12-18T11:45:07.504Z,103090.09
2022-12-18T11:51:16.911Z,103090.50
2022-12-18T11:56:36.116Z,103089.78
2022-12-18T12:01:47.451Z,103074.25
2022-12-18T12:07:01.549Z,103066.47
2022-12-18T12:12:14.318Z,103056.13
2022-12-18T12:17:19.053Z,103045.75
2022-12-18T12:22:38.109Z,103040.75
2022-12-18T12:27:41.203Z,103033.91
2022-12-18T12:32:50.637Z,103018.31
2022-12-18T12:38:06.648Z,103012.50
2022-12-18T12:43:14.563Z,102997.75
2022-12-18T12:48:29.827Z,102986.56
2022-12-18T12:53:31.686Z,102980.56
2022-12-18T12:58:38.227Z,102982.34
2022-12-18T13:03:41.193Z,102985.03
2022-12-18T13:08:58.278Z,102981.69
2022-12-18T13:13:56.924Z,102964.38
2022-12-18T13:18:57.741Z,102968.81
2022-12-18T13:23:54.779Z,102968.84
2022-12-18T13:28:54.097Z,102967.19
2022-12-18T13:34:24.597Z,102971.63
2022-12-18T13:39:35.336Z,102963.75
2022-12-18T13:44:40.895Z,102950.59
2022-12-18T13:49:40.507Z,102951.31
2022-12-18T13:54:40.373Z,102970.38
2022-12-18T13:59:38.830Z,102974.66
2022-12-18T14:04:36.474Z,102971.88
2022-12-18T14:09:38.891Z,102963.97
2022-12-18T14:14:37.577Z,102963.84
2022-12-18T14:19:34.926Z,102949.91
2022-12-18T14:24:31.371Z,102950.59
2022-12-18T14:29:29.765Z,102962.88
2022-12-18T14:34:27.508Z,102955.88
2022-12-18T14:39:26.246Z,102946.19
2022-12-18T14:44:23.800Z,102955.56
2022-12-18T14:49:33.225Z,102950.50
2022-12-18T14:54:30.847Z,102941.72
2022-12-18T14:59:27.803Z,102939.13
2022-12-18T15:04:36.156Z,102932.16
2022-12-18T15:09:32.701Z,102908.59
2022-12-18T15:14:35.790Z,102904.22
2022-12-18T15:19:42.921Z,102887.66
2022-12-18T15:24:39.287Z,102884.97
2022-12-18T15:29:36.062Z,102875.38
2022-12-18T15:34:33.115Z,102875.47
2022-12-18T15:39:29.536Z,102868.53
2022-12-18T15:44:26.422Z,102848.44
2022-12-18T15:49:22.899Z,102856.34
2022-12-18T15:54:39.380Z,102857.28
2022-12-18T15:59:35.943Z,102853.84
2022-12-18T16:04:32.359Z,102842.56
2022-12-18T16:09:28.738Z,102843.41
2022-12-18T16:14:27.598Z,102833.88
2022-12-18T16:19:24.593Z,102833.91
2022-12-18T16:24:25.959Z,102830.41
2022-12-18T16:29:28.625Z,102828.81
2022-12-18T16:34:29.053Z,102809.69
2022-12-18T16:39:26.408Z,102812.38
2022-12-18T16:44:23.248Z,102808.81
2022-12-18T16:49:20.097Z,102808.91
2022-12-18T16:54:19.079Z,102803.63
2022-12-18T16:59:16.210Z,102811.56
2022-12-18T17:04:12.714Z,102804.56
2022-12-18T17:09:15.349Z,102791.56
2022-12-18T17:14:18.136Z,102786.31
2022-12-18T17:19:17.427Z,102788.00
2022-12-18T17:24:14.060Z,102769.69
2022-12-18T17:29:13.740Z,102781.00
2022-12-18T17:34:11.068Z,102770.66
2022-12-18T17:39:07.962Z,102778.56
2022-12-18T17:44:05.850Z,102774.25
2022-12-18T17:49:03.440Z,102748.25
2022-12-18T17:53:59.942Z,102718.66
2022-12-18T17:58:56.426Z,102735.19
2022-12-18T18:03:56.011Z,102693.38
2022-12-18T18:08:53.777Z,102695.16
2022-12-18T18:14:02.629Z,102677.75
2022-12-18T18:19:00.833Z,102692.56
2022-12-18T18:24:00.936Z,102688.19
2022-12-18T18:28:58.821Z,102693.47
2022-12-18T18:33:55.539Z,102673.50
2022-12-18T18:38:52.375Z,102662.16
2022-12-18T18:43:48.862Z,102668.25
2022-12-18T18:48:45.678Z,102651.78
2022-12-18T18:53:43.808Z,102643.03
2022-12-18T18:58:40.928Z,102648.34
2022-12-18T19:03:38.174Z,102624.00
2022-12-18T19:08:39.168Z,102619.69
2022-12-18T19:13:35.857Z,102620.56
2022-12-18T19:18:33.249Z,102584.03
2022-12-18T19:23:31.179Z,102591.00
2022-12-18T19:28:29.166Z,102564.94
2022-12-18T19:33:42.396Z,102576.25
2022-12-18T19:38:42.717Z,102564.84
2022-12-18T19:43:41.783Z,102571.91
2022-12-18T19:48:38.597Z,102552.72
2022-12-18T19:53:35.806Z,102549.28
2022-12-18T19:58:32.327Z,102541.44
2022-12-18T20:03:32.500Z,102526.69
2022-12-18T20:08:29.556Z,102529.19
2022-12-18T20:13:26.048Z,102513.56
2022-12-18T20:18:24.009Z,102508.38
2022-12-18T20:23:22.398Z,102515.38
2022-12-18T20:28:18.899Z,102486.69
2022-12-18T20:33:15.869Z,102496.31
2022-12-18T20:38:12.367Z,102485.84
2022-12-18T20:43:13.841Z,102490.25
2022-12-18T20:48:13.511Z,102463.31
2022-12-18T20:53:10.155Z,102476.38
2022-12-18T20:58:06.662Z,102456.34
2022-12-18T21:03:03.213Z,102464.28
2022-12-18T21:07:59.776Z,102447.81
2022-12-18T21:12:58.834Z,102419.16
2022-12-18T21:17:58.009Z,102400.03
2022-12-18T21:22:57.308Z,102387.00
2022-12-18T21:27:59.772Z,102407.88
2022-12-18T21:32:56.204Z,102467.88
2022-12-18T21:37:52.641Z,102496.56
2022-12-18T21:43:07.403Z,102491.31
2022-12-18T21:48:04.118Z,102490.50
2022-12-18T21:53:00.552Z,102465.25
2022-12-18T21:57:57.372Z,102456.59
2022-12-18T22:03:17.417Z,102437.50
2022-12-18T22:08:10.300Z,102452.28
2022-12-18T22:13:08.714Z,102450.56
2022-12-18T22:18:05.136Z,102439.22
2022-12-18T22:23:04.211Z,102432.31
2022-12-18T22:28:21.644Z,102419.31
2022-12-18T22:33:18.132Z,102421.94
2022-12-18T22:38:14.582Z,102399.31
2022-12-18T22:43:10.958Z,102403.72
2022-12-18T22:48:07.385Z,102397.66
2022-12-18T22:53:03.788Z,102385.47
2022-12-18T22:58:00.179Z,102363.72
2022-12-18T23:03:00.667Z,102360.31
2022-12-18T23:07:58.318Z,102341.16
2022-12-18T23:12:55.648Z,102322.06
2022-12-18T23:17:52.271Z,102318.56
2022-12-18T23:22:48.713Z,102302.91
2022-12-18T23:27:45.195Z,102300.31
2022-12-18T23:32:41.728Z,102274.16
2022-12-18T23:37:59.465Z,102293.31
2022-12-18T23:42:54.704Z,102272.47
2022-12-18T23:47:51.466Z,102281.19
2022-12-18T23:52:47.924Z,102285.56
2022-12-18T23:57:44.434Z,102282.09
